createdAt,value
2016-08-14T00:00:01.738Z,0
2016-08-14T00:01:02.452Z,0
2016-08-14T00:03:01.828Z,0
2016-08-14T00:04:01.839Z,0
2016-08-14T00:05:01.868Z,0
2016-08-14T00:06:01.906Z,0
2016-08-14T00:07:01.922Z,0
2016-08-14T00:08:01.952Z,0
2016-08-14T00:09:01.981Z,0
2016-08-14T00:10:02.011Z,0
2016-08-14T00:11:02.026Z,0
2016-08-14T00:12:16.975Z,0
2016-08-14T00:13:02.080Z,0
2016-08-14T00:14:02.114Z,0
2016-08-14T00:15:02.833Z,0
2016-08-14T00:16:02.159Z,0
2016-08-14T00:17:02.188Z,0
2016-08-14T00:18:02.224Z,0
2016-08-14T00:19:17.172Z,0
2016-08-14T00:20:02.271Z,0
2016-08-14T00:21:02.301Z,0
2016-08-14T00:23:02.349Z,0
2016-08-14T00:24:02.376Z,0
2016-08-14T00:25:02.417Z,0
2016-08-14T00:26:02.431Z,0
2016-08-14T00:27:02.468Z,0
2016-08-14T00:28:17.417Z,0
2016-08-14T00:29:17.434Z,0
2016-08-14T00:30:02.540Z,0
2016-08-14T00:31:02.571Z,0
2016-08-14T00:32:02.599Z,0
2016-08-14T00:33:02.621Z,0
2016-08-14T00:34:02.651Z,0
2016-08-14T00:35:03.373Z,0
2016-08-14T00:36:02.700Z,0
2016-08-14T00:37:02.724Z,0
2016-08-14T00:38:02.753Z,0
2016-08-14T00:39:02.778Z,0
2016-08-14T00:40:17.731Z,0
2016-08-14T00:43:17.805Z,0
2016-08-14T00:44:02.909Z,0
2016-08-14T00:45:02.948Z,0
2016-08-14T00:46:02.967Z,0
2016-08-14T00:47:02.990Z,0
2016-08-14T00:48:03.052Z,0
2016-08-14T00:49:03.038Z,0
2016-08-14T00:50:03.174Z,0
2016-08-14T00:51:03.098Z,0
2016-08-14T00:52:03.123Z,0
2016-08-14T00:53:03.161Z,0
2016-08-14T00:54:03.180Z,0
2016-08-14T00:55:03.203Z,0
2016-08-14T00:56:03.239Z,0
2016-08-14T00:57:03.311Z,0
2016-08-14T00:58:03.283Z,0
2016-08-14T00:59:03.313Z,0
2016-08-14T01:00:03.334Z,0
2016-08-14T01:01:03.369Z,0
2016-08-14T01:02:03.387Z,0
2016-08-14T01:03:03.417Z,0
2016-08-14T01:04:03.445Z,0
2016-08-14T01:05:03.473Z,0
2016-08-14T01:06:03.500Z,0
2016-08-14T01:07:03.526Z,0
2016-08-14T01:08:03.552Z,0
2016-08-14T01:09:03.582Z,0
2016-08-14T01:10:04.309Z,0
2016-08-14T01:11:03.634Z,0
2016-08-14T01:12:03.662Z,0
2016-08-14T01:13:03.678Z,0
2016-08-14T01:14:03.707Z,0
2016-08-14T01:15:18.666Z,0
2016-08-14T01:16:03.763Z,0
2016-08-14T01:17:03.793Z,0
2016-08-14T01:18:03.817Z,0
2016-08-14T01:19:03.844Z,0
2016-08-14T01:20:03.868Z,0
2016-08-14T01:21:03.897Z,0
2016-08-14T01:22:03.918Z,0
2016-08-14T01:23:03.958Z,0
2016-08-14T01:24:03.979Z,0
2016-08-14T01:25:04.010Z,0
2016-08-14T01:26:04.032Z,0
2016-08-14T01:27:04.066Z,0
2016-08-14T01:28:04.081Z,0
2016-08-14T01:29:04.108Z,0
2016-08-14T01:30:04.138Z,0
2016-08-14T01:31:19.087Z,0
2016-08-14T01:32:04.204Z,0
2016-08-14T01:33:04.244Z,0
2016-08-14T01:34:04.239Z,0
2016-08-14T01:35:04.275Z,0
2016-08-14T01:36:04.294Z,0
2016-08-14T01:37:04.323Z,0
2016-08-14T01:38:04.348Z,0
2016-08-14T01:39:04.378Z,0
2016-08-14T01:40:04.399Z,0
2016-08-14T01:41:19.358Z,0
2016-08-14T01:43:19.408Z,0
2016-08-14T01:44:04.511Z,0
2016-08-14T01:45:19.459Z,0
2016-08-14T01:46:04.564Z,0
2016-08-14T01:47:19.509Z,0
2016-08-14T01:48:04.617Z,0
2016-08-14T01:49:04.647Z,0
2016-08-14T01:50:04.670Z,0
2016-08-14T01:51:04.700Z,0
2016-08-14T01:52:04.728Z,0
2016-08-14T01:54:04.785Z,0
2016-08-14T01:55:04.808Z,0
2016-08-14T01:56:19.802Z,0
2016-08-14T01:57:05.567Z,0
2016-08-14T01:58:04.936Z,0
2016-08-14T01:59:04.901Z,0
2016-08-14T02:00:19.858Z,0
2016-08-14T02:01:04.964Z,0
2016-08-14T02:02:04.986Z,0
2016-08-14T02:03:19.939Z,0
2016-08-14T02:04:19.958Z,0
2016-08-14T02:05:06.473Z,0
2016-08-14T02:06:05.092Z,0
2016-08-14T02:07:05.123Z,0
2016-08-14T02:08:05.146Z,0
2016-08-14T02:09:05.167Z,0
2016-08-14T02:10:05.941Z,0
2016-08-14T02:13:05.983Z,0
2016-08-14T02:14:05.299Z,0
2016-08-14T02:15:05.329Z,0
2016-08-14T02:16:20.283Z,0
2016-08-14T02:17:05.386Z,0
2016-08-14T02:18:20.329Z,0
2016-08-14T02:19:05.434Z,0
2016-08-14T02:20:20.379Z,0
2016-08-14T02:21:05.485Z,0
2016-08-14T02:22:05.509Z,0
2016-08-14T02:23:20.458Z,0
2016-08-14T02:24:05.565Z,0
2016-08-14T02:26:05.616Z,0
2016-08-14T02:27:05.644Z,0
2016-08-14T02:28:05.671Z,0
2016-08-14T02:29:05.703Z,0
2016-08-14T02:30:05.724Z,0
2016-08-14T02:31:05.752Z,0
2016-08-14T02:32:06.478Z,0
2016-08-14T02:33:05.807Z,0
2016-08-14T02:34:05.830Z,0
2016-08-14T02:35:05.853Z,0
2016-08-14T02:36:05.883Z,0
2016-08-14T02:37:05.912Z,0
2016-08-14T02:38:05.931Z,0
2016-08-14T02:39:05.956Z,0
2016-08-14T02:40:05.982Z,0
2016-08-14T02:41:06.022Z,0
2016-08-14T02:42:06.040Z,0
2016-08-14T02:43:06.066Z,0
2016-08-14T02:44:06.097Z,0
2016-08-14T02:45:06.130Z,0
2016-08-14T02:46:06.155Z,0
2016-08-14T02:47:21.096Z,0
2016-08-14T02:48:06.197Z,0
2016-08-14T02:49:06.225Z,0
2016-08-14T02:50:21.172Z,0
2016-08-14T02:51:06.279Z,0
2016-08-14T02:52:07.012Z,0
2016-08-14T02:53:06.335Z,0
2016-08-14T02:54:06.364Z,0
2016-08-14T02:55:06.379Z,0
2016-08-14T02:56:06.412Z,0
2016-08-14T02:57:06.430Z,0
2016-08-14T02:58:06.469Z,0
2016-08-14T02:59:06.500Z,0
2016-08-14T03:00:06.568Z,0
2016-08-14T03:01:06.540Z,0
2016-08-14T03:02:06.568Z,0
2016-08-14T03:03:06.597Z,0
2016-08-14T03:05:06.651Z,0
2016-08-14T03:07:06.708Z,0
2016-08-14T03:08:06.723Z,0
2016-08-14T03:09:06.751Z,0
2016-08-14T03:10:06.785Z,0
2016-08-14T03:11:06.802Z,0
2016-08-14T03:12:06.833Z,0
2016-08-14T03:13:06.863Z,0
2016-08-14T03:14:06.878Z,0
2016-08-14T03:15:06.912Z,0
2016-08-14T03:16:06.936Z,0
2016-08-14T03:17:06.965Z,4
2016-08-14T03:18:07.019Z,0
2016-08-14T03:19:07.010Z,4
2016-08-14T03:21:07.073Z,0
2016-08-14T03:22:22.017Z,4
2016-08-14T03:24:07.141Z,8
2016-08-14T03:25:07.177Z,4
2016-08-14T03:26:07.195Z,8
2016-08-14T03:28:22.183Z,8
2016-08-14T03:29:07.279Z,12
2016-08-14T03:30:07.302Z,12
2016-08-14T03:31:07.340Z,8
2016-08-14T03:32:07.366Z,12
2016-08-14T03:33:08.088Z,12
2016-08-14T03:34:07.434Z,12
2016-08-14T03:35:07.434Z,12
2016-08-14T03:36:07.469Z,16
2016-08-14T03:38:22.443Z,20
2016-08-14T03:39:07.544Z,24
2016-08-14T03:41:07.594Z,40
2016-08-14T03:42:07.620Z,48
2016-08-14T03:43:07.648Z,56
2016-08-14T03:44:07.679Z,68
2016-08-14T03:45:07.704Z,76
2016-08-14T03:46:07.723Z,92
2016-08-14T03:47:07.760Z,100
2016-08-14T03:48:07.773Z,96
2016-08-14T03:49:07.799Z,84
2016-08-14T03:50:22.759Z,92
2016-08-14T03:51:07.866Z,100
2016-08-14T03:52:07.884Z,112
2016-08-14T03:54:07.950Z,116
2016-08-14T03:55:07.972Z,116
2016-08-14T03:56:07.997Z,120
2016-08-14T03:57:08.026Z,120
2016-08-14T03:58:08.038Z,128
2016-08-14T04:01:23.053Z,148
2016-08-14T04:02:08.202Z,152
2016-08-14T04:03:08.179Z,148
2016-08-14T04:04:08.195Z,144
2016-08-14T04:05:08.227Z,144
2016-08-14T04:06:08.260Z,144
2016-08-14T04:07:23.203Z,144
2016-08-14T04:08:23.230Z,148
2016-08-14T04:09:23.268Z,148
2016-08-14T04:11:08.389Z,156
2016-08-14T04:12:08.412Z,192
2016-08-14T04:13:08.490Z,204
2016-08-14T04:14:08.480Z,216
2016-08-14T04:15:08.501Z,232
2016-08-14T04:16:08.513Z,248
2016-08-14T04:17:08.541Z,260
2016-08-14T04:18:08.594Z,296
2016-08-14T04:19:08.607Z,296
2016-08-14T04:20:08.623Z,308
2016-08-14T04:21:08.651Z,316
2016-08-14T04:22:08.673Z,336
2016-08-14T04:23:09.414Z,320
2016-08-14T04:24:08.736Z,272
2016-08-14T04:25:23.684Z,244
2016-08-14T04:26:08.785Z,248
2016-08-14T04:27:08.816Z,236
2016-08-14T04:28:23.756Z,260
2016-08-14T04:29:08.867Z,312
2016-08-14T04:30:08.890Z,352
2016-08-14T04:31:09.618Z,392
2016-08-14T04:32:08.940Z,404
2016-08-14T04:33:08.977Z,452
2016-08-14T04:34:09.000Z,584
2016-08-14T04:35:09.712Z,680
2016-08-14T04:36:09.052Z,872
2016-08-14T04:37:09.065Z,1060
2016-08-14T04:38:09.095Z,1292
2016-08-14T04:39:09.122Z,1408
2016-08-14T04:40:09.148Z,1864
2016-08-14T04:42:09.211Z,1404
2016-08-14T04:43:09.925Z,1348
2016-08-14T04:44:09.251Z,1688
2016-08-14T04:45:09.300Z,2184
2016-08-14T04:46:10.006Z,2248
2016-08-14T04:47:09.339Z,2152
2016-08-14T04:48:09.365Z,2080
2016-08-14T04:49:09.393Z,2316
2016-08-14T04:50:09.408Z,2188
2016-08-14T04:51:09.457Z,2252
2016-08-14T04:52:10.162Z,2180
2016-08-14T04:53:09.486Z,2132
2016-08-14T04:54:09.525Z,2196
2016-08-14T04:55:24.470Z,2500
2016-08-14T04:56:09.578Z,2912
2016-08-14T04:57:24.520Z,3784
2016-08-14T04:58:09.624Z,4192
2016-08-14T04:59:09.647Z,4968
2016-08-14T05:00:09.679Z,5932
2016-08-14T05:01:09.753Z,7136
2016-08-14T05:02:24.666Z,8772
2016-08-14T05:03:25.379Z,18240
2016-08-14T05:04:09.789Z,33696
2016-08-14T05:05:09.819Z,33152
2016-08-14T05:06:09.841Z,34688
2016-08-14T05:07:09.915Z,39616
2016-08-14T05:08:09.899Z,31136
2016-08-14T05:09:09.920Z,34528
2016-08-14T05:10:09.946Z,37536
2016-08-14T05:11:09.978Z,38880
2016-08-14T05:12:10.063Z,38496
2016-08-14T05:14:10.067Z,38400
2016-08-14T05:15:10.133Z,37856
2016-08-14T05:16:10.116Z,23392
2016-08-14T05:17:10.145Z,11668
2016-08-14T05:18:10.176Z,28416
2016-08-14T05:19:10.205Z,15008
2016-08-14T05:20:10.238Z,8856
2016-08-14T05:21:10.260Z,8164
2016-08-14T05:22:25.226Z,8104
2016-08-14T05:23:25.256Z,7904
2016-08-14T05:24:10.355Z,7280
2016-08-14T05:25:10.392Z,6748
2016-08-14T05:26:25.341Z,6892
2016-08-14T05:27:10.437Z,6788
2016-08-14T05:28:25.416Z,7508
2016-08-14T05:29:10.518Z,7612
2016-08-14T05:30:25.452Z,7132
2016-08-14T05:31:10.563Z,7008
2016-08-14T05:32:10.586Z,7316
2016-08-14T05:33:10.608Z,7360
2016-08-14T05:34:10.652Z,8120
2016-08-14T05:35:10.672Z,10556
2016-08-14T05:36:25.634Z,48544
2016-08-14T05:37:10.732Z,28544
2016-08-14T05:38:11.458Z,55648
2016-08-14T05:39:10.799Z,56736
2016-08-14T05:40:10.818Z,56864
2016-08-14T05:41:10.843Z,58272
2016-08-14T05:42:25.808Z,59616
2016-08-14T05:44:10.934Z,56320
2016-08-14T05:45:10.968Z,54016
2016-08-14T05:46:11.000Z,50752
2016-08-14T05:47:11.030Z,27104
2016-08-14T05:48:11.068Z,37504
2016-08-14T05:49:11.107Z,16224
2016-08-14T05:50:11.826Z,14736
2016-08-14T05:51:11.864Z,12980
2016-08-14T05:52:11.182Z,11744
2016-08-14T05:53:11.220Z,11008
2016-08-14T05:54:11.255Z,11876
2016-08-14T05:55:11.286Z,22304
2016-08-14T05:56:11.313Z,27840
2016-08-14T05:57:11.349Z,51936
2016-08-14T05:58:11.375Z,43776
2016-08-14T05:59:11.401Z,59744
2016-08-14T06:00:26.368Z,60096
2016-08-14T06:01:11.476Z,53568
2016-08-14T06:02:26.436Z,47648
2016-08-14T06:03:11.538Z,56096
2016-08-14T06:04:11.566Z,62176
2016-08-14T06:05:12.289Z,14164
2016-08-14T06:06:11.632Z,60384
2016-08-14T06:07:11.659Z,14248
2016-08-14T06:08:11.701Z,29664
2016-08-14T06:09:11.729Z,14680
2016-08-14T06:10:11.748Z,13352
2016-08-14T06:11:11.781Z,12408
2016-08-14T06:12:12.513Z,45536
2016-08-14T06:13:11.860Z,49536
2016-08-14T06:14:11.895Z,36320
2016-08-14T06:15:11.963Z,44160
2016-08-14T06:16:26.928Z,30752
2016-08-14T06:17:26.902Z,55456
2016-08-14T06:18:12.011Z,60800
2016-08-14T06:19:12.051Z,67872
2016-08-14T06:20:12.096Z,70464
2016-08-14T06:21:12.106Z,39872
2016-08-14T06:22:12.152Z,68224
2016-08-14T06:23:12.174Z,54848
2016-08-14T06:24:12.215Z,15296
2016-08-14T06:25:12.255Z,20960
2016-08-14T06:26:12.277Z,68896
2016-08-14T06:27:12.305Z,68672
2016-08-14T06:28:12.341Z,71616
2016-08-14T06:29:27.304Z,31904
2016-08-14T06:30:12.411Z,63968
2016-08-14T06:31:12.460Z,65792
2016-08-14T06:32:27.392Z,68256
2016-08-14T06:33:12.508Z,68768
2016-08-14T06:35:12.574Z,76192
2016-08-14T06:37:12.645Z,82208
2016-08-14T06:38:12.677Z,87424
2016-08-14T06:39:12.718Z,82848
2016-08-14T06:40:12.752Z,70720
2016-08-14T06:41:12.776Z,24000
2016-08-14T06:42:12.818Z,95104
2016-08-14T06:43:12.841Z,76480
2016-08-14T06:44:12.879Z,22432
2016-08-14T06:45:12.913Z,17504
2016-08-14T06:46:12.951Z,14704
2016-08-14T06:47:12.974Z,14192
2016-08-14T06:48:27.940Z,17376
2016-08-14T06:49:13.052Z,56704
2016-08-14T06:50:13.093Z,61440
2016-08-14T06:51:13.113Z,24832
2016-08-14T06:52:13.173Z,26528
2016-08-14T06:53:13.181Z,65408
2016-08-14T06:54:13.216Z,57088
2016-08-14T06:55:13.253Z,67840
2016-08-14T06:56:13.289Z,39264
2016-08-14T06:57:13.318Z,26304
2016-08-14T06:58:13.363Z,16512
2016-08-14T06:59:13.382Z,27200
2016-08-14T07:00:28.344Z,28224
2016-08-14T07:01:13.461Z,34272
2016-08-14T07:02:13.489Z,92416
2016-08-14T07:03:28.442Z,61184
2016-08-14T07:04:13.562Z,78528
2016-08-14T07:05:13.584Z,26016
2016-08-14T07:06:13.623Z,23744
2016-08-14T07:07:13.649Z,34080
2016-08-14T07:08:13.681Z,50208
2016-08-14T07:09:13.738Z,20576
2016-08-14T07:10:13.758Z,19872
2016-08-14T07:11:13.787Z,31488
2016-08-14T07:12:13.829Z,23616
2016-08-14T07:13:28.786Z,23968
2016-08-14T07:14:13.889Z,32256
2016-08-14T07:15:28.900Z,32224
2016-08-14T07:16:14.010Z,25408
2016-08-14T07:17:14.000Z,34016
2016-08-14T07:18:14.034Z,21408
2016-08-14T07:19:14.051Z,22720
2016-08-14T07:20:14.790Z,21856
2016-08-14T07:21:29.042Z,69280
2016-08-14T07:22:14.206Z,53184
2016-08-14T07:23:14.185Z,18752
2016-08-14T07:25:14.265Z,40736
2016-08-14T07:26:14.289Z,21920
2016-08-14T07:27:14.321Z,56064
2016-08-14T07:28:14.356Z,21856
2016-08-14T07:29:14.387Z,59648
2016-08-14T07:30:29.346Z,21920
2016-08-14T07:31:14.450Z,24096
2016-08-14T07:32:14.485Z,48896
2016-08-14T07:33:14.667Z,35456
2016-08-14T07:34:29.474Z,40096
2016-08-14T07:35:29.506Z,83136
2016-08-14T07:36:14.616Z,46816
2016-08-14T07:37:29.568Z,21216
2016-08-14T07:38:14.683Z,19200
2016-08-14T07:39:14.722Z,16768
2016-08-14T07:40:14.747Z,31712
2016-08-14T07:41:14.788Z,24512
2016-08-14T07:42:14.810Z,20672
2016-08-14T07:43:14.844Z,13928
2016-08-14T07:44:15.575Z,17376
2016-08-14T07:45:14.907Z,55840
2016-08-14T07:49:15.038Z,40480
2016-08-14T07:50:15.075Z,61312
2016-08-14T07:51:30.040Z,73376
2016-08-14T07:52:15.149Z,73824
2016-08-14T07:53:30.095Z,45856
2016-08-14T07:55:15.233Z,20736
2016-08-14T07:56:15.976Z,16784
2016-08-14T07:57:15.307Z,19840
2016-08-14T07:58:15.334Z,66624
2016-08-14T07:59:15.373Z,75040
2016-08-14T08:01:15.434Z,27872
2016-08-14T08:02:15.478Z,20576
2016-08-14T08:03:15.503Z,16052
2016-08-14T08:04:15.538Z,19168
2016-08-14T08:05:30.497Z,12464
2016-08-14T08:06:15.614Z,40064
2016-08-14T08:07:30.570Z,63840
2016-08-14T08:08:15.664Z,20896
2016-08-14T08:09:15.706Z,69984
2016-08-14T08:10:15.742Z,42176
2016-08-14T08:11:15.774Z,45472
2016-08-14T08:12:15.810Z,37184
2016-08-14T08:13:15.835Z,17248
2016-08-14T08:14:15.865Z,17088
2016-08-14T08:15:15.915Z,46656
2016-08-14T08:16:15.995Z,56800
2016-08-14T08:18:16.031Z,30240
2016-08-14T08:19:16.041Z,54784
2016-08-14T08:20:16.070Z,22880
2016-08-14T08:21:16.109Z,25632
2016-08-14T08:22:16.142Z,37024
2016-08-14T08:23:31.094Z,40768
2016-08-14T08:24:16.207Z,22272
2016-08-14T08:25:16.241Z,19936
2016-08-14T08:26:16.321Z,17952
2016-08-14T08:27:16.306Z,28512
2016-08-14T08:31:16.441Z,19072
2016-08-14T08:32:16.470Z,20384
2016-08-14T08:33:16.505Z,13000
2016-08-14T08:34:16.539Z,12164
2016-08-14T08:35:16.575Z,11736
2016-08-14T08:36:31.530Z,12140
2016-08-14T08:41:31.694Z,14196
2016-08-14T08:42:16.820Z,15596
2016-08-14T08:43:16.843Z,18592
2016-08-14T08:44:16.863Z,20448
2016-08-14T08:45:16.915Z,14904
2016-08-14T08:46:16.926Z,17600
2016-08-14T08:48:17.004Z,22048
2016-08-14T08:49:17.041Z,15824
2016-08-14T08:50:17.072Z,14436
2016-08-14T08:51:17.106Z,11676
2016-08-14T08:52:17.138Z,10232
2016-08-14T08:53:17.180Z,9544
2016-08-14T08:54:17.211Z,8708
2016-08-14T08:55:17.918Z,7760
2016-08-14T08:56:17.256Z,7452
2016-08-14T08:57:17.292Z,7544
2016-08-14T08:58:17.340Z,8176
2016-08-14T08:59:32.288Z,8996
2016-08-14T09:00:17.394Z,9024
2016-08-14T09:01:32.353Z,9440
2016-08-14T09:02:32.383Z,10800
2016-08-14T09:03:17.488Z,15344
2016-08-14T09:04:17.520Z,13832
2016-08-14T09:05:17.546Z,16332
2016-08-14T09:06:32.517Z,27200
2016-08-14T09:07:17.619Z,17792
2016-08-14T09:08:32.568Z,20640
2016-08-14T09:09:17.682Z,26528
2016-08-14T09:10:32.638Z,18752
2016-08-14T09:11:17.738Z,19264
2016-08-14T09:12:17.771Z,17056
2016-08-14T09:13:17.813Z,17120
2016-08-14T09:14:17.840Z,18336
2016-08-14T09:15:17.863Z,17632
2016-08-14T09:16:17.897Z,17568
2016-08-14T09:18:17.963Z,16288
2016-08-14T09:19:17.991Z,20160
2016-08-14T09:20:18.020Z,17888
2016-08-14T09:22:18.104Z,15424
2016-08-14T09:23:18.122Z,15388
2016-08-14T09:25:18.246Z,17216
2016-08-14T09:26:33.799Z,16244
2016-08-14T09:27:18.253Z,15308
2016-08-14T09:28:33.204Z,17632
2016-08-14T09:29:18.321Z,16364
2016-08-14T09:30:18.345Z,19264
2016-08-14T09:31:18.388Z,15028
2016-08-14T09:32:18.412Z,20448
2016-08-14T09:33:18.434Z,18816
2016-08-14T09:34:18.473Z,18432
2016-08-14T09:35:18.510Z,14352
2016-08-14T09:36:33.474Z,16008
2016-08-14T09:37:18.570Z,20320
2016-08-14T09:38:18.608Z,18144
2016-08-14T09:39:33.573Z,19808
2016-08-14T09:40:18.670Z,19680
2016-08-14T09:41:33.624Z,20064
2016-08-14T09:42:33.659Z,13416
2016-08-14T09:43:33.686Z,20800
2016-08-14T09:44:33.719Z,17600
2016-08-14T09:45:18.829Z,14008
2016-08-14T09:46:18.871Z,20000
2016-08-14T09:47:18.893Z,19552
2016-08-14T09:48:18.929Z,17952
2016-08-14T09:49:18.958Z,15048
2016-08-14T09:50:18.981Z,17280
2016-08-14T09:51:19.021Z,13852
2016-08-14T09:52:33.985Z,19040
2016-08-14T09:53:34.017Z,14076
2016-08-14T09:54:19.126Z,15788
2016-08-14T09:55:34.080Z,13104
2016-08-14T09:56:19.189Z,13840
2016-08-14T09:57:19.217Z,11304
2016-08-14T09:58:34.173Z,13672
2016-08-14T09:59:34.205Z,15624
2016-08-14T10:00:19.316Z,16960
2016-08-14T10:01:19.357Z,17408
2016-08-14T10:02:19.381Z,11212
2016-08-14T10:04:19.445Z,17280
2016-08-14T10:05:19.489Z,16416
2016-08-14T10:06:19.511Z,17024
2016-08-14T10:08:19.578Z,16348
2016-08-14T10:09:19.606Z,16780
2016-08-14T10:10:19.643Z,17504
2016-08-14T10:11:19.674Z,17984
2016-08-14T10:12:19.705Z,17312
2016-08-14T10:13:34.656Z,16044
2016-08-14T10:14:34.689Z,15328
2016-08-14T10:15:34.736Z,15280
2016-08-14T10:16:20.523Z,15184
2016-08-14T10:17:34.787Z,14420
2016-08-14T10:18:20.598Z,14972
2016-08-14T10:19:19.932Z,14816
2016-08-14T10:21:20.013Z,13216
2016-08-14T10:22:20.039Z,11068
2016-08-14T10:23:34.993Z,13620
2016-08-14T10:25:20.184Z,14512
2016-08-14T10:26:20.160Z,14332
2016-08-14T10:27:20.189Z,14656
2016-08-14T10:28:20.232Z,10892
2016-08-14T10:29:20.260Z,10472
2016-08-14T10:30:20.292Z,10680
2016-08-14T10:31:20.376Z,13684
2016-08-14T10:32:20.363Z,13340
2016-08-14T10:33:20.386Z,10444
2016-08-14T10:34:20.436Z,10124
2016-08-14T10:35:20.455Z,9716
2016-08-14T10:36:35.411Z,9292
2016-08-14T10:37:20.508Z,9004
2016-08-14T10:38:21.248Z,8272
2016-08-14T10:39:20.594Z,7440
2016-08-14T10:40:20.613Z,6732
2016-08-14T10:41:21.337Z,6212
2016-08-14T10:42:35.600Z,5812
2016-08-14T10:43:20.696Z,5816
2016-08-14T10:44:20.738Z,5812
2016-08-14T10:46:20.802Z,5660
2016-08-14T10:47:20.852Z,5448
2016-08-14T10:48:20.857Z,5236
2016-08-14T10:49:20.896Z,5216
2016-08-14T10:50:20.915Z,5812
2016-08-14T10:52:20.985Z,7440
2016-08-14T10:53:21.011Z,7908
2016-08-14T10:55:21.086Z,10868
2016-08-14T10:56:21.106Z,9816
2016-08-14T10:57:21.831Z,10892
2016-08-14T10:58:36.095Z,11896
2016-08-14T10:59:36.124Z,11292
2016-08-14T11:00:36.156Z,11488
2016-08-14T11:01:36.189Z,11604
2016-08-14T11:02:21.291Z,11852
2016-08-14T11:03:21.328Z,12196
2016-08-14T11:04:21.354Z,12272
2016-08-14T11:05:36.319Z,12248
2016-08-14T11:06:21.415Z,11908
2016-08-14T11:07:22.156Z,11184
2016-08-14T11:08:21.473Z,11428
2016-08-14T11:09:21.511Z,10980
2016-08-14T11:10:36.484Z,11292
2016-08-14T11:11:21.567Z,11316
2016-08-14T11:12:21.607Z,11172
2016-08-14T11:13:21.635Z,11200
2016-08-14T11:14:21.678Z,10912
2016-08-14T11:15:21.691Z,10796
2016-08-14T11:16:21.731Z,11380
2016-08-14T11:17:36.674Z,11568
2016-08-14T11:18:36.706Z,11752
2016-08-14T11:19:21.814Z,11476
2016-08-14T11:20:21.855Z,11212
2016-08-14T11:21:21.880Z,11120
2016-08-14T11:22:21.943Z,11088
2016-08-14T11:23:21.941Z,10720
2016-08-14T11:24:21.967Z,10292
2016-08-14T11:25:22.008Z,10012
2016-08-14T11:26:22.028Z,9788
2016-08-14T11:27:22.064Z,9376
2016-08-14T11:28:22.107Z,9164
2016-08-14T11:29:22.137Z,9064
2016-08-14T11:30:37.084Z,9880
2016-08-14T11:31:22.232Z,9020
2016-08-14T11:32:22.371Z,8972
2016-08-14T11:33:37.177Z,8556
2016-08-14T11:34:22.334Z,8636
2016-08-14T11:36:22.341Z,9172
2016-08-14T11:37:22.366Z,9336
2016-08-14T11:38:22.404Z,9500
2016-08-14T11:39:22.438Z,9596
2016-08-14T11:40:22.460Z,10040
2016-08-14T11:41:23.190Z,10564
2016-08-14T11:42:22.528Z,10936
2016-08-14T11:43:22.550Z,10944
2016-08-14T11:44:22.586Z,10732
2016-08-14T11:45:22.623Z,9908
2016-08-14T11:46:22.647Z,9728
2016-08-14T11:47:22.677Z,9860
2016-08-14T11:48:37.635Z,10100
2016-08-14T11:49:37.663Z,10336
2016-08-14T11:50:37.690Z,10728
2016-08-14T11:51:22.804Z,10728
2016-08-14T11:52:22.831Z,10872
2016-08-14T11:53:22.860Z,10056
2016-08-14T11:54:22.907Z,9584
2016-08-14T11:56:37.887Z,8844
2016-08-14T11:57:22.985Z,8716
2016-08-14T11:58:37.946Z,8544
2016-08-14T11:59:23.043Z,8584
2016-08-14T12:00:23.084Z,8728
2016-08-14T12:01:23.106Z,8956
2016-08-14T12:02:23.144Z,9092
2016-08-14T12:03:23.171Z,9204
2016-08-14T12:04:23.208Z,9196
2016-08-14T12:05:38.155Z,9364
2016-08-14T12:06:23.262Z,9868
2016-08-14T12:08:23.320Z,9748
2016-08-14T12:09:23.362Z,9876
2016-08-14T12:10:23.390Z,10436
2016-08-14T12:11:23.421Z,10680
2016-08-14T12:12:23.464Z,12820
2016-08-14T12:13:23.483Z,11504
2016-08-14T12:14:23.512Z,13192
2016-08-14T12:15:23.540Z,12532
2016-08-14T12:16:23.578Z,11744
2016-08-14T12:17:23.607Z,12504
2016-08-14T12:18:23.628Z,12100
2016-08-14T12:19:23.664Z,10696
2016-08-14T12:20:38.615Z,10272
2016-08-14T12:21:38.648Z,9324
2016-08-14T12:22:23.752Z,9240
2016-08-14T12:23:23.788Z,10136
2016-08-14T12:25:23.839Z,9424
2016-08-14T12:27:23.905Z,8576
2016-08-14T12:28:23.932Z,8524
2016-08-14T12:29:23.970Z,8412
2016-08-14T12:30:24.000Z,8468
2016-08-14T12:31:24.039Z,8268
2016-08-14T12:32:24.055Z,7936
2016-08-14T12:33:24.786Z,7480
2016-08-14T12:34:24.170Z,7052
2016-08-14T12:35:24.159Z,6744
2016-08-14T12:36:39.107Z,6608
2016-08-14T12:37:24.930Z,6688
2016-08-14T12:38:24.257Z,6888
2016-08-14T12:39:24.275Z,7152
2016-08-14T12:40:24.326Z,7376
2016-08-14T12:41:24.335Z,7588
2016-08-14T12:42:24.371Z,8404
2016-08-14T12:43:24.415Z,8020
2016-08-14T12:44:25.130Z,8012
2016-08-14T12:45:24.458Z,7936
2016-08-14T12:47:24.521Z,8064
2016-08-14T12:48:24.546Z,8256
2016-08-14T12:49:24.581Z,8384
2016-08-14T12:50:24.620Z,8208
2016-08-14T12:51:39.568Z,8160
2016-08-14T12:52:39.599Z,8148
2016-08-14T12:53:24.700Z,8136
2016-08-14T12:54:25.423Z,8048
2016-08-14T12:55:24.760Z,8276
2016-08-14T12:56:24.798Z,8048
2016-08-14T12:58:24.852Z,8648
2016-08-14T12:59:24.880Z,8624
2016-08-14T13:00:25.614Z,8532
2016-08-14T13:01:24.934Z,8544
2016-08-14T13:02:24.976Z,9648
2016-08-14T13:03:25.008Z,8812
2016-08-14T13:04:39.957Z,8088
2016-08-14T13:05:39.986Z,7888
2016-08-14T13:06:25.090Z,7712
2016-08-14T13:07:40.049Z,7480
2016-08-14T13:08:40.073Z,7496
2016-08-14T13:09:25.190Z,7744
2016-08-14T13:10:25.217Z,7904
2016-08-14T13:11:25.237Z,7900
2016-08-14T13:12:25.268Z,7856
2016-08-14T13:13:25.304Z,7744
2016-08-14T13:15:25.364Z,7676
2016-08-14T13:16:25.390Z,7392
2016-08-14T13:17:25.427Z,7124
2016-08-14T13:18:25.442Z,6888
2016-08-14T13:19:40.425Z,6728
2016-08-14T13:20:25.520Z,6644
2016-08-14T13:22:25.576Z,6276
2016-08-14T13:23:40.531Z,5940
2016-08-14T13:24:25.638Z,5692
2016-08-14T13:25:40.581Z,5356
2016-08-14T13:26:25.692Z,5188
2016-08-14T13:27:25.730Z,5072
2016-08-14T13:28:25.773Z,5196
2016-08-14T13:29:25.788Z,5732
2016-08-14T13:30:25.814Z,6384
2016-08-14T13:31:25.852Z,6956
2016-08-14T13:32:25.873Z,7556
2016-08-14T13:33:25.904Z,8044
2016-08-14T13:34:40.910Z,8528
2016-08-14T13:35:25.964Z,8548
2016-08-14T13:36:26.005Z,8224
2016-08-14T13:37:40.943Z,7648
2016-08-14T13:38:26.256Z,7896
2016-08-14T13:39:26.080Z,7092
2016-08-14T13:40:26.109Z,6952
2016-08-14T13:41:41.060Z,6940
2016-08-14T13:42:26.171Z,6936
2016-08-14T13:43:26.200Z,7004
2016-08-14T13:44:26.225Z,7028
2016-08-14T13:45:26.258Z,6836
2016-08-14T13:46:41.218Z,6528
2016-08-14T13:47:26.314Z,6460
2016-08-14T13:48:26.361Z,7124
2016-08-14T13:49:26.379Z,7188
2016-08-14T13:50:41.333Z,7200
2016-08-14T13:51:26.437Z,7220
2016-08-14T13:52:41.393Z,7888
2016-08-14T13:53:26.492Z,7696
2016-08-14T13:54:27.310Z,7900
2016-08-14T13:55:41.495Z,7788
2016-08-14T13:57:26.623Z,8188
2016-08-14T13:58:26.641Z,8556
2016-08-14T13:59:26.674Z,8880
2016-08-14T14:00:27.406Z,8816
2016-08-14T14:01:26.729Z,8320
2016-08-14T14:02:26.772Z,8340
2016-08-14T14:03:26.807Z,9072
2016-08-14T14:04:27.525Z,8644
2016-08-14T14:05:26.844Z,7764
2016-08-14T14:06:26.882Z,7244
2016-08-14T14:07:26.926Z,7140
2016-08-14T14:08:26.944Z,7160
2016-08-14T14:09:26.985Z,7044
2016-08-14T14:10:27.019Z,7336
2016-08-14T14:11:41.956Z,7460
2016-08-14T14:12:27.068Z,7116
2016-08-14T14:13:27.087Z,6816
2016-08-14T14:14:27.122Z,6872
2016-08-14T14:15:27.150Z,6584
2016-08-14T14:16:27.187Z,6540
2016-08-14T14:17:27.912Z,6560
2016-08-14T14:18:27.246Z,6564
2016-08-14T14:19:27.276Z,6532
2016-08-14T14:20:27.325Z,6264
2016-08-14T14:21:27.337Z,5892
2016-08-14T14:22:27.371Z,5740
2016-08-14T14:23:27.406Z,5852
2016-08-14T14:24:28.117Z,5980
2016-08-14T14:25:27.450Z,6056
2016-08-14T14:26:27.483Z,6000
2016-08-14T14:27:42.441Z,5876
2016-08-14T14:28:42.462Z,5852
2016-08-14T14:29:42.504Z,5772